Time;durP1;ratioP1;P1;durP2;ratioP2;P2;SDS_P1;SDS_P2;PMS_P1;PMS_P2;Temp;Humidity;BMP_temperature;BMP_pressure;BME280_temperature;BME280_humidity;BME280_pressure;Samples;Min_cycle;Max_cycle;Signal;HPM_P1;HPM_P2
2023/01/01 00:01:12;;;;;;;113.07;47.65;;;8.10;99.90;;;;;;5061590;28;20059;-65
2023/01/01 00:03:38;;;;;;;102.60;44.78;;;8.00;99.90;;;;;;5057562;28;20040;-66
2023/01/01 00:06:13;;;;;;;243.38;101.85;;;7.90;99.90;;;;;;5065734;28;20149;-66
2023/01/01 00:08:39;;;;;;;172.30;70.30;;;7.80;99.90;;;;;;5073650;28;20075;-67
2023/01/01 00:11:06;;;;;;;287.08;116.03;;;7.90;99.90;;;;;;5072882;28;20089;-66
2023/01/01 00:13:33;;;;;;;338.05;134.77;;;7.90;99.90;;;;;;5066318;28;20401;-67
2023/01/01 00:16:08;;;;;;;319.08;136.15;;;7.90;99.90;;;;;;5067743;28;20036;-67
2023/01/01 00:18:34;;;;;;;339.00;139.07;;;7.80;99.90;;;;;;5074898;28;20032;-66
2023/01/01 00:21:05;;;;;;;383.10;155.05;;;7.90;99.90;;;;;;5067512;28;20040;-68
2023/01/01 00:23:31;;;;;;;257.77;110.07;;;7.90;99.90;;;;;;5068676;28;20394;-67
2023/01/01 00:25:58;;;;;;;234.80;101.32;;;8.00;99.90;;;;;;5065529;28;20040;-67
2023/01/01 00:28:23;;;;;;;320.88;133.23;;;8.10;99.90;;;;;;5067445;28;20036;-71
2023/01/01 00:30:49;;;;;;;328.73;137.85;;;8.20;99.90;;;;;;5064287;28;20035;-71
2023/01/01 00:33:14;;;;;;;294.02;122.93;;;8.20;99.90;;;;;;5073878;28;20771;-68
2023/01/01 00:35:40;;;;;;;323.73;132.95;;;8.20;99.90;;;;;;5066188;28;20082;-67
2023/01/01 00:38:06;;;;;;;367.02;147.00;;;8.20;99.90;;;;;;5064849;28;20063;-66
2023/01/01 00:40:32;;;;;;;355.70;143.00;;;8.30;99.90;;;;;;5052632;28;20382;-65
2023/01/01 00:42:57;;;;;;;302.50;130.60;;;8.30;99.90;;;;;;5071609;28;20071;-68
2023/01/01 00:45:23;;;;;;;310.23;128.90;;;8.20;99.90;;;;;;5068660;28;20097;-68
2023/01/01 00:47:53;;;;;;;306.55;128.02;;;8.30;99.90;;;;;;5069040;28;20029;-70
2023/01/01 00:50:20;;;;;;;273.38;114.90;;;8.30;99.90;;;;;;5068690;28;20443;-66
2023/01/01 00:52:47;;;;;;;268.20;107.50;;;8.20;99.90;;;;;;5069251;28;20059;-66
2023/01/01 00:55:13;;;;;;;208.65;85.22;;;8.30;99.90;;;;;;5056366;28;20032;-67
2023/01/01 00:57:39;;;;;;;203.77;85.15;;;8.50;99.90;;;;;;5062810;28;20039;-65
2023/01/01 01:00:06;;;;;;;203.32;83.97;;;8.70;99.90;;;;;;5062842;28;20107;-68
2023/01/01 01:02:32;;;;;;;220.35;90.03;;;8.70;99.90;;;;;;5062746;28;20052;-65
2023/01/01 01:04:57;;;;;;;227.57;97.18;;;8.70;99.90;;;;;;5065440;28;20090;-67
2023/01/01 01:07:23;;;;;;;256.80;105.78;;;8.60;99.90;;;;;;5052701;28;20478;-67
2023/01/01 01:09:48;;;;;;;201.02;87.60;;;8.50;99.90;;;;;;5052467;28;20043;-70
2023/01/01 01:12:14;;;;;;;354.02;141.30;;;8.40;99.90;;;;;;5073576;28;20135;-65
2023/01/01 01:14:40;;;;;;;471.52;192.23;;;8.40;99.90;;;;;;5060964;28;20601;-68
2023/01/01 01:17:05;;;;;;;402.60;167.45;;;8.40;99.90;;;;;;5062902;28;20036;-68
2023/01/01 01:19:31;;;;;;;360.52;144.20;;;8.30;99.90;;;;;;5065195;28;20038;-67
2023/01/01 01:21:56;;;;;;;420.95;166.95;;;8.30;99.90;;;;;;5052742;28;20025;-66
2023/01/01 01:24:22;;;;;;;376.98;150.77;;;8.20;99.90;;;;;;5066656;28;20740;-68
2023/01/01 01:26:48;;;;;;;271.10;109.22;;;8.30;99.90;;;;;;5064137;28;20543;-67
2023/01/01 01:29:13;;;;;;;309.90;122.70;;;8.30;99.90;;;;;;5066587;28;20449;-67
2023/01/01 01:31:39;;;;;;;361.33;147.60;;;8.40;99.90;;;;;;5065128;28;20029;-66
2023/01/01 01:34:05;;;;;;;309.48;127.18;;;8.50;99.90;;;;;;5056666;28;20118;-68
2023/01/01 01:36:30;;;;;;;251.25;104.80;;;8.50;99.90;;;;;;5053484;28;20025;-68
2023/01/01 01:38:56;;;;;;;178.38;73.45;;;8.50;99.90;;;;;;5066639;28;20402;-66
2023/01/01 01:41:24;;;;;;;158.75;65.38;;;8.50;99.90;;;;;;5068512;28;20077;-67
2023/01/01 01:43:54;;;;;;;125.68;51.58;;;8.60;99.90;;;;;;5055518;28;20036;-70
2023/01/01 01:46:34;;;;;;;110.03;48.03;;;8.70;99.90;;;;;;5053026;28;20016;-67
2023/01/01 01:49:09;;;;;;;155.75;64.10;;;8.80;99.90;;;;;;5066729;28;20036;-66
2023/01/01 01:51:38;;;;;;;112.82;48.35;;;8.90;99.90;;;;;;5066844;28;20040;-66
2023/01/01 01:54:11;;;;;;;114.43;47.70;;;9.00;99.90;;;;;;5058643;28;20039;-67
2023/01/01 01:56:53;;;;;;;89.97;39.63;;;9.00;99.90;;;;;;5072018;28;20416;-67
2023/01/01 01:59:21;;;;;;;102.60;42.25;;;9.20;99.90;;;;;;5053979;28;20074;-67
2023/01/01 02:01:47;;;;;;;86.07;37.58;;;9.30;99.90;;;;;;5065726;28;20051;-67
2023/01/01 02:04:12;;;;;;;88.88;39.72;;;9.50;99.90;;;;;;5059150;28;20591;-67
2023/01/01 02:06:38;;;;;;;93.15;39.47;;;9.80;99.90;;;;;;5063257;28;20039;-68
2023/01/01 02:09:06;;;;;;;99.05;43.28;;;9.90;99.90;;;;;;5066016;28;20044;-68
2023/01/01 02:11:32;;;;;;;115.07;49.03;;;10.00;99.90;;;;;;5065839;28;20033;-69
2023/01/01 02:13:59;;;;;;;109.75;46.88;;;10.10;99.90;;;;;;5054333;28;20048;-68
2023/01/01 02:17:02;;;;;;;99.65;42.40;;;10.10;99.90;;;;;;5065951;28;20390;-67
2023/01/01 02:20:01;;;;;;;92.15;40.13;;;10.30;99.90;;;;;;5023086;28;20473;-66
2023/01/01 02:22:35;;;;;;;82.05;39.08;;;10.40;99.90;;;;;;5049361;28;20028;-67
2023/01/01 02:25:20;;;;;;;68.30;31.08;;;10.40;99.90;;;;;;5061994;28;20362;-67
2023/01/01 02:27:56;;;;;;;61.90;28.63;;;10.30;99.90;;;;;;5066966;28;20362;-67
2023/01/01 02:30:22;;;;;;;62.67;27.20;;;10.20;99.90;;;;;;5059012;28;20069;-67
2023/01/01 02:32:59;;;;;;;89.68;39.15;;;9.90;99.90;;;;;;5057688;28;20056;-67
2023/01/01 02:35:38;;;;;;;161.63;69.68;;;9.80;99.90;;;;;;5065553;28;20535;-67
2023/01/01 02:38:06;;;;;;;157.32;66.65;;;9.50;99.90;;;;;;5066249;28;20528;-67
2023/01/01 02:40:34;;;;;;;186.75;80.70;;;9.30;99.90;;;;;;5059984;28;20025;-66
2023/01/01 02:43:01;;;;;;;150.18;65.20;;;9.10;99.90;;;;;;5047089;28;20553;-66
2023/01/01 02:45:27;;;;;;;136.23;57.88;;;9.00;99.90;;;;;;5047714;28;20025;-66
2023/01/01 02:47:53;;;;;;;166.00;71.78;;;9.00;99.90;;;;;;5048059;28;20111;-70
2023/01/01 02:50:26;;;;;;;118.65;51.38;;;8.90;99.90;;;;;;5060558;28;20465;-68
2023/01/01 02:53:05;;;;;;;128.02;51.28;;;8.90;99.90;;;;;;5066761;28;20035;-67
2023/01/01 02:56:08;;;;;;;120.88;52.67;;;8.80;99.90;;;;;;5064266;28;20052;-67
2023/01/01 03:01:42;;;;;;;127.30;55.30;;;8.90;99.90;;;;;;5066887;28;20714;-68
2023/01/01 03:04:20;;;;;;;118.70;51.38;;;8.70;99.90;;;;;;5066753;28;20032;-68
2023/01/01 03:06:50;;;;;;;99.53;43.45;;;8.70;99.90;;;;;;5051849;28;20138;-67
2023/01/01 03:09:41;;;;;;;104.72;42.72;;;8.60;99.90;;;;;;5058456;28;20032;-65
2023/01/01 03:12:16;;;;;;;90.82;39.00;;;8.60;99.90;;;;;;5069273;28;20507;-65
2023/01/01 03:14:57;;;;;;;104.53;44.95;;;8.80;99.90;;;;;;5067043;28;20035;-68
2023/01/01 03:17:45;;;;;;;77.30;33.72;;;8.80;99.90;;;;;;5050760;28;20032;-67
2023/01/01 03:20:18;;;;;;;75.93;33.47;;;8.70;99.90;;;;;;5068833;28;20498;-68
2023/01/01 03:22:44;;;;;;;80.28;36.28;;;8.70;99.90;;;;;;5069701;28;20071;-66
2023/01/01 03:25:18;;;;;;;118.78;50.78;;;8.90;99.90;;;;;;5062869;28;20029;-67
2023/01/01 03:27:58;;;;;;;141.75;59.08;;;8.70;99.90;;;;;;5055893;28;20055;-66
2023/01/01 03:30:24;;;;;;;153.48;64.45;;;8.40;99.90;;;;;;5070064;28;20041;-66
2023/01/01 03:32:59;;;;;;;123.95;54.45;;;8.10;99.90;;;;;;5065227;28;20141;-67
2023/01/01 03:35:42;;;;;;;119.18;48.92;;;7.90;99.90;;;;;;5071763;28;20032;-67
2023/01/01 03:38:12;;;;;;;111.80;47.40;;;7.90;99.90;;;;;;5058879;28;20029;-70
2023/01/01 03:40:39;;;;;;;91.18;40.92;;;7.90;99.90;;;;;;5069911;28;20043;-67
2023/01/01 03:43:33;;;;;;;80.07;34.03;;;7.90;99.90;;;;;;5068690;28;20162;-67
2023/01/01 03:46:00;;;;;;;76.28;33.35;;;7.90;99.90;;;;;;5064677;28;20047;-71
2023/01/01 03:48:26;;;;;;;78.10;33.33;;;7.90;99.90;;;;;;5050680;28;20108;-66
2023/01/01 03:51:08;;;;;;;72.70;27.75;;;7.90;99.90;;;;;;5056899;28;20107;-65
2023/01/01 03:53:42;;;;;;;64.85;29.17;;;7.90;99.90;;;;;;5070789;28;20026;-67
2023/01/01 03:56:39;;;;;;;73.60;30.73;;;8.00;99.90;;;;;;5064817;28;20029;-68
2023/01/01 03:59:33;;;;;;;58.47;24.70;;;8.10;99.90;;;;;;5049050;28;20056;-67
2023/01/01 04:02:01;;;;;;;71.55;30.95;;;8.40;99.90;;;;;;5056862;28;20037;-70
2023/01/01 04:04:27;;;;;;;65.07;29.50;;;8.50;99.90;;;;;;5067645;28;20032;-65
2023/01/01 04:06:54;;;;;;;75.40;33.05;;;8.50;99.90;;;;;;5066209;28;20032;-67
2023/01/01 04:09:24;;;;;;;80.47;34.53;;;8.30;99.90;;;;;;5068715;28;20036;-66
2023/01/01 04:12:03;;;;;;;83.03;34.50;;;8.20;99.90;;;;;;5065629;28;20060;-67
2023/01/01 04:14:35;;;;;;;68.13;29.63;;;8.00;99.90;;;;;;5071650;28;20120;-67
2023/01/01 04:17:02;;;;;;;59.58;25.00;;;7.80;99.90;;;;;;5068342;28;20035;-70
2023/01/01 04:19:28;;;;;;;50.33;21.27;;;7.70;99.90;;;;;;5068654;28;20110;-67
2023/01/01 04:21:54;;;;;;;53.15;25.35;;;7.70;99.90;;;;;;5054719;28;20033;-65
2023/01/01 04:24:19;;;;;;;97.50;39.15;;;7.90;99.90;;;;;;5049059;28;20102;-66
2023/01/01 04:26:45;;;;;;;75.82;31.15;;;7.80;99.90;;;;;;5052616;28;20083;-66
2023/01/01 04:29:11;;;;;;;59.47;26.33;;;7.70;99.90;;;;;;5058335;28;20511;-67
2023/01/01 04:31:37;;;;;;;64.53;27.10;;;7.70;99.90;;;;;;5081171;28;20435;-66
2023/01/01 04:34:03;;;;;;;67.43;27.92;;;7.70;99.90;;;;;;5071860;28;20064;-70
2023/01/01 04:36:28;;;;;;;64.65;27.98;;;7.70;99.90;;;;;;5049688;28;20025;-67
2023/01/01 04:38:54;;;;;;;65.95;27.40;;;7.80;99.90;;;;;;5066681;28;20040;-67
2023/01/01 04:41:20;;;;;;;66.20;29.00;;;7.80;99.90;;;;;;5068878;28;20020;-65
2023/01/01 04:43:49;;;;;;;68.10;29.23;;;7.90;99.90;;;;;;5062866;28;20033;-67
2023/01/01 04:46:16;;;;;;;61.05;27.30;;;8.00;99.90;;;;;;5068641;28;20044;-65
2023/01/01 04:48:41;;;;;;;56.47;24.67;;;7.90;99.90;;;;;;5065264;28;20040;-67
2023/01/01 04:51:09;;;;;;;67.00;27.15;;;7.90;99.90;;;;;;5068567;28;20078;-66
2023/01/01 04:53:35;;;;;;;59.38;25.42;;;7.90;99.90;;;;;;5062366;28;20037;-68
2023/01/01 04:56:13;;;;;;;52.72;23.13;;;7.80;99.90;;;;;;5053678;28;20028;-69
2023/01/01 04:58:39;;;;;;;49.05;21.75;;;7.90;99.90;;;;;;5063612;28;20443;-67
2023/01/01 05:01:06;;;;;;;54.78;23.92;;;8.20;99.90;;;;;;5048580;28;20048;-68
2023/01/01 05:03:32;;;;;;;56.42;22.83;;;8.30;99.90;;;;;;5059719;28;20021;-67
2023/01/01 05:06:07;;;;;;;61.40;25.38;;;8.40;99.90;;;;;;5069234;28;20038;-66
2023/01/01 05:08:34;;;;;;;62.67;26.88;;;8.50;99.90;;;;;;5063747;28;20036;-65
2023/01/01 05:11:01;;;;;;;53.42;23.13;;;8.10;99.90;;;;;;5066396;28;20021;-67
2023/01/01 05:13:26;;;;;;;64.13;26.60;;;8.00;99.90;;;;;;5052935;28;20465;-66
2023/01/01 05:15:52;;;;;;;52.45;23.50;;;7.90;99.90;;;;;;5063006;28;20039;-65
2023/01/01 05:18:17;;;;;;;51.60;22.98;;;7.80;99.90;;;;;;5067021;28;20099;-68
2023/01/01 05:20:43;;;;;;;69.93;26.92;;;7.80;99.90;;;;;;5066475;28;20408;-67
2023/01/01 05:23:09;;;;;;;56.58;22.85;;;7.70;99.90;;;;;;5068723;28;20073;-65
2023/01/01 05:25:34;;;;;;;52.55;21.85;;;7.70;99.90;;;;;;5082017;28;20058;-66
2023/01/01 05:28:00;;;;;;;66.03;27.42;;;7.80;99.90;;;;;;5064694;28;20092;-67
2023/01/01 05:30:25;;;;;;;57.03;22.77;;;7.90;99.90;;;;;;5086528;28;20043;-68
2023/01/01 05:32:51;;;;;;;53.03;23.35;;;7.90;99.90;;;;;;5055364;28;20025;-66
2023/01/01 05:35:16;;;;;;;60.47;26.88;;;7.80;99.90;;;;;;5047722;28;20051;-67
2023/01/01 05:37:42;;;;;;;62.25;25.70;;;7.80;99.90;;;;;;5064109;28;20052;-67
2023/01/01 05:40:08;;;;;;;61.00;25.83;;;7.70;99.90;;;;;;5067709;28;20032;-68
2023/01/01 05:42:35;;;;;;;57.70;25.08;;;7.60;99.90;;;;;;5066519;28;20054;-65
2023/01/01 05:45:01;;;;;;;61.65;26.45;;;7.50;99.90;;;;;;5079931;28;20066;-67
2023/01/01 05:47:27;;;;;;;57.70;24.05;;;7.40;99.90;;;;;;5065703;28;20025;-67
2023/01/01 05:49:53;;;;;;;51.42;23.05;;;7.30;99.90;;;;;;5066170;28;20033;-67
2023/01/01 05:52:18;;;;;;;50.20;22.30;;;7.30;99.90;;;;;;5061395;28;20354;-67
2023/01/01 05:54:44;;;;;;;55.58;24.75;;;7.50;99.90;;;;;;5066863;28;20025;-65
2023/01/01 05:57:10;;;;;;;55.58;23.70;;;7.50;99.90;;;;;;5065740;28;20374;-67
2023/01/01 05:59:35;;;;;;;58.80;24.58;;;7.50;99.90;;;;;;5066111;28;20032;-67
2023/01/01 06:02:01;;;;;;;58.75;23.90;;;7.70;99.90;;;;;;5052406;28;20104;-67
2023/01/01 06:04:27;;;;;;;57.40;23.55;;;7.70;99.90;;;;;;5063692;28;20665;-66
2023/01/01 06:06:52;;;;;;;60.03;24.40;;;7.80;99.90;;;;;;5052649;28;20452;-65
2023/01/01 06:09:18;;;;;;;58.55;24.25;;;7.80;99.90;;;;;;5061885;28;20036;-66
2023/01/01 06:11:44;;;;;;;56.60;24.67;;;7.80;99.90;;;;;;5063665;28;20035;-67
2023/01/01 06:14:09;;;;;;;50.22;22.20;;;7.80;99.90;;;;;;5078858;28;20115;-70
2023/01/01 06:16:35;;;;;;;49.38;21.52;;;7.70;99.90;;;;;;5074263;28;20387;-67
2023/01/01 06:19:01;;;;;;;48.47;21.73;;;7.70;99.90;;;;;;5068426;28;20044;-65
2023/01/01 06:21:28;;;;;;;47.38;19.67;;;7.80;99.90;;;;;;5059017;28;20047;-68
2023/01/01 06:23:55;;;;;;;49.00;20.83;;;8.00;99.90;;;;;;5055083;28;20086;-67
2023/01/01 06:26:29;;;;;;;45.95;20.13;;;8.10;99.90;;;;;;5053878;28;20045;-67
2023/01/01 06:28:56;;;;;;;45.42;19.10;;;8.10;99.90;;;;;;5061093;28;20106;-66
2023/01/01 06:31:22;;;;;;;46.35;19.10;;;8.00;99.90;;;;;;5053766;28;20378;-66
2023/01/01 06:33:49;;;;;;;52.15;20.63;;;7.90;99.90;;;;;;5060031;28;20036;-67
2023/01/01 06:36:16;;;;;;;40.83;18.15;;;7.90;99.90;;;;;;5057324;28;20037;-67
2023/01/01 06:38:44;;;;;;;41.92;17.75;;;7.80;99.90;;;;;;5054939;28;20107;-66
2023/01/01 06:41:15;;;;;;;39.78;18.30;;;7.80;99.90;;;;;;5050951;28;20048;-68
2023/01/01 06:43:41;;;;;;;37.28;16.88;;;7.80;99.90;;;;;;5055648;28;20028;-67
2023/01/01 06:46:36;;;;;;;43.15;18.40;;;7.70;99.90;;;;;;5070685;28;20033;-70
2023/01/01 06:49:05;;;;;;;42.90;17.92;;;7.60;99.90;;;;;;5049794;28;20049;-66
2023/01/01 06:51:35;;;;;;;35.65;15.82;;;7.50;99.90;;;;;;5064265;28;20052;-66
2023/01/01 06:54:03;;;;;;;36.40;14.52;;;7.50;99.90;;;;;;5063985;28;20036;-65
2023/01/01 06:56:29;;;;;;;35.55;15.23;;;7.50;99.90;;;;;;5056911;28;20112;-66
2023/01/01 06:58:55;;;;;;;38.28;16.40;;;7.60;99.90;;;;;;5077146;28;20555;-66
2023/01/01 07:01:26;;;;;;;39.83;16.30;;;7.60;99.90;;;;;;5065124;28;20036;-65
2023/01/01 07:03:57;;;;;;;39.42;17.17;;;7.60;99.90;;;;;;5070280;28;20083;-65
2023/01/01 07:06:23;;;;;;;36.75;15.77;;;7.50;99.90;;;;;;5064439;28;20083;-67
2023/01/01 07:08:49;;;;;;;38.45;16.13;;;7.40;99.90;;;;;;5051504;28;20036;-67
2023/01/01 07:11:15;;;;;;;31.15;13.48;;;7.40;99.90;;;;;;5060944;28;20039;-68
2023/01/01 07:13:41;;;;;;;34.42;15.15;;;7.40;99.90;;;;;;5081671;28;20031;-67
2023/01/01 07:16:07;;;;;;;33.08;15.07;;;7.40;99.90;;;;;;5069177;28;20036;-66
2023/01/01 07:18:33;;;;;;;40.80;17.92;;;7.50;99.90;;;;;;5065637;28;21110;-68
2023/01/01 07:21:01;;;;;;;46.75;20.60;;;7.50;99.90;;;;;;5069796;28;20033;-66
2023/01/01 07:23:29;;;;;;;33.45;15.55;;;7.30;99.90;;;;;;5068843;28;20452;-66
2023/01/01 07:25:54;;;;;;;46.08;19.77;;;7.10;99.90;;;;;;5063169;28;20043;-65
2023/01/01 07:28:22;;;;;;;45.05;18.52;;;7.20;99.90;;;;;;5068234;28;20668;-67
2023/01/01 07:30:47;;;;;;;40.55;16.45;;;7.10;99.90;;;;;;5059098;28;20043;-65
2023/01/01 07:33:16;;;;;;;39.50;17.05;;;7.10;99.90;;;;;;5066968;28;20024;-70
2023/01/01 07:35:43;;;;;;;43.35;18.52;;;7.10;99.90;;;;;;5077446;28;20457;-66
2023/01/01 07:38:09;;;;;;;52.30;20.85;;;7.10;99.90;;;;;;5068828;28;20036;-65
2023/01/01 07:40:35;;;;;;;43.75;19.60;;;7.10;99.90;;;;;;5066423;28;20032;-66
2023/01/01 07:43:01;;;;;;;38.17;17.67;;;6.90;99.90;;;;;;5066792;28;21599;-67
2023/01/01 07:45:26;;;;;;;43.60;18.20;;;7.10;99.90;;;;;;5068040;28;20361;-65
2023/01/01 07:47:54;;;;;;;41.50;17.65;;;7.20;99.90;;;;;;5067285;28;20035;-65
2023/01/01 07:50:21;;;;;;;44.85;19.85;;;7.30;99.90;;;;;;5076037;28;20025;-65
2023/01/01 07:52:47;;;;;;;54.78;22.95;;;7.40;99.90;;;;;;5079018;28;20020;-66
2023/01/01 07:55:14;;;;;;;51.50;21.33;;;7.30;99.90;;;;;;5069404;28;20040;-70
2023/01/01 07:57:43;;;;;;;38.65;17.80;;;7.20;99.90;;;;;;5076878;28;20036;-66
2023/01/01 08:00:11;;;;;;;41.55;18.50;;;7.20;99.90;;;;;;5070916;28;20481;-66
2023/01/01 08:02:37;;;;;;;47.83;22.70;;;7.40;99.90;;;;;;5071418;28;20029;-66
2023/01/01 08:05:03;;;;;;;56.50;22.50;;;7.40;99.90;;;;;;5072415;28;20436;-68
2023/01/01 08:07:29;;;;;;;45.70;21.08;;;7.40;99.90;;;;;;5058527;28;20458;-67
2023/01/01 08:09:54;;;;;;;54.00;23.70;;;7.30;99.90;;;;;;5061125;28;20044;-66
2023/01/01 08:12:20;;;;;;;47.13;19.80;;;7.30;99.90;;;;;;5057219;28;20028;-66
2023/01/01 08:14:46;;;;;;;41.63;18.52;;;7.30;99.90;;;;;;5061397;28;20024;-66
2023/01/01 08:17:11;;;;;;;41.90;19.73;;;7.40;99.90;;;;;;5055033;28;20047;-67
2023/01/01 08:19:37;;;;;;;52.78;24.60;;;7.60;99.90;;;;;;5063492;28;20749;-65
2023/01/01 08:22:02;;;;;;;53.72;24.02;;;7.80;99.90;;;;;;5061169;28;20384;-66
2023/01/01 08:24:28;;;;;;;41.05;17.88;;;7.80;99.90;;;;;;5057493;28;20423;-65
2023/01/01 08:26:54;;;;;;;39.28;18.33;;;7.90;99.90;;;;;;5060958;28;20055;-66
2023/01/01 08:29:19;;;;;;;66.03;31.23;;;8.00;99.90;;;;;;5055911;28;20128;-66
2023/01/01 08:31:45;;;;;;;82.88;38.70;;;8.10;99.90;;;;;;5058667;28;20492;-68
2023/01/01 08:34:11;;;;;;;86.82;42.25;;;8.00;99.90;;;;;;5055511;28;20143;-65
2023/01/01 08:36:39;;;;;;;91.68;44.40;;;7.90;99.90;;;;;;5061815;28;20029;-66
2023/01/01 08:39:05;;;;;;;69.45;33.00;;;7.80;99.90;;;;;;5062362;28;20084;-66
2023/01/01 08:41:31;;;;;;;46.45;19.77;;;7.60;99.90;;;;;;5052432;28;20031;-67
2023/01/01 08:43:57;;;;;;;54.13;24.52;;;7.70;99.90;;;;;;5057451;28;20033;-67
2023/01/01 08:46:22;;;;;;;69.80;33.63;;;7.80;99.90;;;;;;5064885;28;20028;-67
2023/01/01 08:48:48;;;;;;;114.10;54.03;;;7.90;99.90;;;;;;5062059;28;20041;-65
2023/01/01 08:51:14;;;;;;;134.55;57.28;;;7.80;99.90;;;;;;5059826;28;20043;-69
2023/01/01 08:53:40;;;;;;;168.02;66.47;;;7.50;99.90;;;;;;5066704;28;20055;-68
2023/01/01 08:56:08;;;;;;;153.73;60.85;;;7.30;99.90;;;;;;5067396;28;20028;-68
2023/01/01 08:58:38;;;;;;;132.35;52.10;;;7.20;99.90;;;;;;5058698;28;20102;-65
2023/01/01 09:01:04;;;;;;;138.10;55.58;;;7.20;99.90;;;;;;5062561;28;20032;-65
2023/01/01 09:03:30;;;;;;;90.60;39.03;;;7.20;99.90;;;;;;5054558;28;20039;-66
2023/01/01 09:05:56;;;;;;;103.35;44.80;;;7.30;99.90;;;;;;5063216;28;20050;-64
2023/01/01 09:08:22;;;;;;;96.50;42.15;;;7.40;99.90;;;;;;5059380;28;20036;-64
2023/01/01 09:10:48;;;;;;;71.28;30.23;;;7.50;99.90;;;;;;5063805;28;20045;-66
2023/01/01 09:13:16;;;;;;;83.75;36.85;;;7.60;99.90;;;;;;5059027;28;20386;-66
2023/01/01 09:15:42;;;;;;;52.85;23.38;;;7.80;99.90;;;;;;5054831;28;20024;-64
2023/01/01 09:18:09;;;;;;;66.65;27.75;;;8.00;99.90;;;;;;5067689;28;20028;-67
2023/01/01 09:20:35;;;;;;;48.22;21.88;;;8.30;99.90;;;;;;5058592;28;20891;-65
2023/01/01 09:23:01;;;;;;;96.70;42.63;;;8.50;99.90;;;;;;5058491;28;20029;-65
2023/01/01 09:25:29;;;;;;;54.95;24.98;;;8.60;99.90;;;;;;5059423;28;20444;-64
2023/01/01 09:27:59;;;;;;;50.85;22.45;;;8.60;99.90;;;;;;5041180;28;20122;-64
2023/01/01 09:30:26;;;;;;;82.80;39.97;;;8.70;99.90;;;;;;5068937;28;20125;-67
2023/01/01 09:32:51;;;;;;;72.15;32.50;;;8.80;99.90;;;;;;5066002;28;20060;-67
2023/01/01 09:35:17;;;;;;;66.07;31.55;;;8.70;99.90;;;;;;5063853;28;20028;-68
2023/01/01 09:37:43;;;;;;;71.13;34.28;;;8.90;99.90;;;;;;5065799;28;20036;-65
2023/01/01 09:40:46;;;;;;;67.97;31.83;;;9.00;99.90;;;;;;5062372;28;20061;-65
2023/01/01 09:43:32;;;;;;;51.80;24.35;;;9.20;99.90;;;;;;5060879;28;20044;-64
2023/01/01 09:46:05;;;;;;;78.05;34.63;;;9.20;99.90;;;;;;5062557;28;20071;-66
2023/01/01 09:48:34;;;;;;;82.55;37.15;;;9.40;99.90;;;;;;5056017;28;20029;-67
2023/01/01 09:51:03;;;;;;;77.28;39.05;;;9.40;99.90;;;;;;5063137;28;20040;-66
2023/01/01 09:54:16;;;;;;;94.15;47.42;;;9.50;99.90;;;;;;5061604;28;20112;-65
2023/01/01 09:56:44;;;;;;;82.25;37.72;;;9.30;99.90;;;;;;5018276;28;20533;-65
2023/01/01 09:59:10;;;;;;;69.32;33.17;;;9.20;99.90;;;;;;5066063;28;20079;-65
2023/01/01 10:01:58;;;;;;;72.97;36.22;;;9.30;99.90;;;;;;5066036;28;20126;-65
2023/01/01 10:04:48;;;;;;;78.43;39.97;;;9.40;99.90;;;;;;5051479;28;20040;-65
2023/01/01 10:07:30;;;;;;;61.88;31.75;;;9.40;99.90;;;;;;5061377;28;20040;-65
2023/01/01 10:10:22;;;;;;;39.13;20.40;;;9.50;99.90;;;;;;5063546;28;20492;-65
2023/01/01 10:13:03;;;;;;;62.42;31.63;;;9.70;99.90;;;;;;5064125;28;20497;-66
2023/01/01 10:15:54;;;;;;;24.08;12.07;;;10.00;99.90;;;;;;5070788;28;20038;-64
2023/01/01 10:18:25;;;;;;;25.60;11.40;;;10.60;99.90;;;;;;5065809;28;20807;-68
2023/01/01 10:21:14;;;;;;;72.95;38.67;;;10.90;99.90;;;;;;5059285;28;20182;-66
2023/01/01 10:23:48;;;;;;;45.80;24.67;;;11.10;99.90;;;;;;5064504;28;20042;-64
2023/01/01 10:26:20;;;;;;;72.60;37.55;;;10.80;99.90;;;;;;5074090;28;20037;-64
2023/01/01 10:29:18;;;;;;;67.88;33.38;;;10.60;99.90;;;;;;5067082;28;20169;-62
2023/01/01 10:31:47;;;;;;;50.65;26.45;;;10.40;99.90;;;;;;5047235;28;20049;-65
2023/01/01 10:34:18;;;;;;;58.13;28.35;;;10.30;99.90;;;;;;5066679;28;20037;-65
2023/01/01 10:36:44;;;;;;;;;;;10.30;99.90;;;;;;5067799;28;20261;-63
2023/01/01 10:39:16;;;;;;;64.25;30.27;;;10.30;99.90;;;;;;5067781;28;20011;-62
2023/01/01 10:41:43;;;;;;;61.85;31.55;;;10.20;99.90;;;;;;5058364;28;20493;-65
2023/01/01 10:44:11;;;;;;;61.47;30.45;;;10.20;99.90;;;;;;5053996;28;20029;-64
2023/01/01 10:46:47;;;;;;;68.80;32.00;;;10.20;99.90;;;;;;5063423;28;20096;-64
2023/01/01 10:49:14;;;;;;;58.75;31.13;;;10.20;99.90;;;;;;5062184;28;20555;-64
2023/01/01 10:51:47;;;;;;;73.57;37.65;;;10.10;99.90;;;;;;5063520;28;20458;-65
2023/01/01 10:54:18;;;;;;;78.47;37.95;;;10.20;99.90;;;;;;5056928;28;20025;-64
2023/01/01 10:56:45;;;;;;;80.85;40.05;;;10.20;99.90;;;;;;5058806;28;20021;-65
2023/01/01 10:59:37;;;;;;;80.25;41.42;;;10.30;99.90;;;;;;5060104;28;20040;-63
2023/01/01 11:02:22;;;;;;;76.82;39.28;;;10.30;99.90;;;;;;5065620;28;20498;-67
2023/01/01 11:04:50;;;;;;;69.63;36.67;;;10.40;99.90;;;;;;5068980;28;20161;-66
2023/01/01 11:07:21;;;;;;;68.80;34.35;;;10.40;99.90;;;;;;5061128;28;20066;-64
2023/01/01 11:09:48;;;;;;;65.07;33.42;;;10.50;99.90;;;;;;5063394;28;20174;-65
2023/01/01 11:12:22;;;;;;;88.03;45.33;;;10.70;99.90;;;;;;5059689;28;20036;-64
2023/01/01 11:14:56;;;;;;;83.75;42.35;;;10.80;99.90;;;;;;5064807;28;20059;-64
2023/01/01 11:17:31;;;;;;;85.78;44.25;;;10.80;99.90;;;;;;5070578;28;20029;-68
2023/01/01 11:19:57;;;;;;;77.20;39.95;;;10.90;99.90;;;;;;5070483;28;20032;-65
2023/01/01 11:22:47;;;;;;;95.07;47.33;;;10.90;99.90;;;;;;5070469;28;20028;-68
2023/01/01 11:25:18;;;;;;;97.47;50.63;;;11.10;99.90;;;;;;5062561;28;20077;-64
2023/01/01 11:27:43;;;;;;;94.22;47.88;;;11.30;99.90;;;;;;5069651;28;20048;-65
2023/01/01 11:30:28;;;;;;;92.03;46.13;;;11.40;99.90;;;;;;5070256;28;20044;-63
2023/01/01 11:33:01;;;;;;;59.13;29.55;;;11.60;99.90;;;;;;5070113;28;20037;-64
2023/01/01 11:35:32;;;;;;;73.72;37.63;;;11.70;99.90;;;;;;5069857;28;20044;-68
2023/01/01 11:37:58;;;;;;;69.60;35.03;;;11.90;99.90;;;;;;5075607;28;20713;-63
2023/01/01 11:40:31;;;;;;;47.65;23.73;;;12.00;99.90;;;;;;5070104;28;20090;-68
2023/01/01 11:43:01;;;;;;;51.30;27.70;;;12.30;99.90;;;;;;5070309;28;20449;-65
2023/01/01 11:45:33;;;;;;;33.53;16.33;;;12.70;99.90;;;;;;5069726;28;20029;-69
2023/01/01 11:48:01;;;;;;;27.90;13.98;;;12.90;99.90;;;;;;5068876;28;20036;-65
2023/01/01 11:50:37;;;;;;;48.40;23.25;;;13.40;99.90;;;;;;5069148;28;20466;-70
2023/01/01 11:53:21;;;;;;;40.53;21.88;;;13.70;99.90;;;;;;5071231;28;20043;-66
2023/01/01 11:56:04;;;;;;;35.10;18.13;;;14.00;99.90;;;;;;5069015;28;20029;-65
2023/01/01 11:58:36;;;;;;;30.58;15.93;;;14.20;99.90;;;;;;5063022;28;20645;-66
2023/01/01 12:01:16;;;;;;;29.15;12.60;;;14.50;99.90;;;;;;5067700;28;20108;-64
2023/01/01 12:03:59;;;;;;;29.85;15.88;;;14.70;99.90;;;;;;5052044;28;20108;-66
2023/01/01 12:06:31;;;;;;;27.15;14.52;;;15.10;99.90;;;;;;5062570;28;20121;-69
2023/01/01 12:09:38;;;;;;;31.27;14.93;;;15.50;99.90;;;;;;5064423;28;20511;-64
2023/01/01 12:12:25;;;;;;;15.27;6.32;;;15.70;99.90;;;;;;5052315;28;20045;-66
2023/01/01 12:15:03;;;;;;;17.13;8.48;;;15.90;99.90;;;;;;5059354;28;20028;-68
2023/01/01 12:17:33;;;;;;;15.05;7.35;;;15.90;99.90;;;;;;5058386;28;20029;-68
2023/01/01 12:20:08;;;;;;;;;;;16.00;99.90;;;;;;5069137;28;20036;-64
2023/01/01 12:22:34;;;;;;;11.00;5.55;;;16.20;99.90;;;;;;5065194;28;20050;-65
2023/01/01 12:25:00;;;;;;;13.02;5.90;;;16.30;99.90;;;;;;5069252;28;20112;-65
2023/01/01 12:27:34;;;;;;;12.38;4.90;;;16.30;99.90;;;;;;5064017;28;20057;-66
2023/01/01 12:30:02;;;;;;;9.77;4.07;;;16.40;99.90;;;;;;5068937;28;20032;-64
2023/01/01 12:32:28;;;;;;;16.60;5.30;;;16.60;99.90;;;;;;5069023;28;20028;-68
2023/01/01 12:35:13;;;;;;;12.57;4.22;;;16.70;99.90;;;;;;5069281;28;20718;-64
2023/01/01 12:37:42;;;;;;;14.63;6.15;;;16.80;99.90;;;;;;5068402;28;20029;-66
2023/01/01 12:40:38;;;;;;;16.30;6.90;;;16.80;99.90;;;;;;5068964;28;20392;-67
2023/01/01 12:43:13;;;;;;;11.23;4.10;;;16.90;99.90;;;;;;5068552;28;20496;-65
2023/01/01 12:46:10;;;;;;;14.68;3.90;;;17.00;99.90;;;;;;5060745;28;20397;-64
2023/01/01 12:48:54;;;;;;;11.40;4.65;;;17.10;99.90;;;;;;5060519;28;20032;-67
2023/01/01 12:52:01;;;;;;;12.25;3.00;;;17.00;99.90;;;;;;5074097;28;20032;-65
2023/01/01 12:55:06;;;;;;;6.85;3.20;;;17.30;99.90;;;;;;5068741;28;20039;-65